ROMMA est une association bénévole à but non lucratif. Votre soutien est indispensable : ADHERER à ROMMA ou FAIRE un DON

Engins - (38, Isère)

Vercors (906 m)   Longitude: 05° 37' E   Latitude: 45° 11' N Station partenaire n°139
 

Détail journalier du     <<     >>

Température Precipitation Humidité Vent Dir Rafale Dir. rafale Ensol.
Heure (°C) (mm) (%) (km/h) (km/h) (min)
01:00 10.40935SSO13SSO0
02:00 11.10944SO10SSO0
03:00 10.30924SSO11SO0
04:00 9.90926SSO13SSO0
05:00 9.90936SSO15SSO0
06:00 9.80927SSO18S0
07:00 9.70945SO13OSO0
08:00 9.50948SSO16S0
09:00 10.10937SSO16SO0
10:00 12.40867SSO15SSO25
11:00 15.40804SE11SE60
12:00 15.50823NE8E60
13:00 15.40843NE13ENE60
14:00 15.30802ENE8ENE55
15:00 14.90831NE8ENE35
16:00 14.10821NE5NE25
17:00 12.30833ONO8ONO0
18:00 11.60834ONO8OSO0
19:00 11.10853NNO10NNO0
20:00 10.40873NNO8NO0
21:00 10.30873S10O0
22:00 9.60893SSO11S0
23:00 10.30865SSO13OSO0
minuit 10.40875SSO15OSO0

Graphique du 30-10-2019

 

Serveur OMMA